• Join FlightAware (Why Join?)
  • Login
  • US Flag 
05:38PM EDT


 

Airport Tracker/Info


-or-


 

Live Flight TrackerFlight Track Log ✈ UCA4838 ✈ 26-Jun-2013 ✈ KROC - KEWR

Flight Track Log - Related Links

Times and Time Zones

All times are in EDT time to prevent confusion due to time zone crossing. See the UCA4838 flight status page for this flight to view local times or setup timezone preferences in your user account.

Time Position Orientation Groundspeed Altitude Reporting Facility
EDT Latitude Longitude Course Direction KTS MPH feet Rate Location/Type
06:21AM 43.1036 -77.6914 193° South 111 128 1,200  Level Cleveland Center
06:22AM 43.0725 -77.7014 193° South 154 177 2,000 720 Climbing Cleveland Center
06:23AM 43.0417 -77.6372 123° Southeast 231 266 2,700 780 Climbing Cleveland Center
06:24AM 43.0261 -77.5956 117° Southeast 223 257 3,200 960 Climbing Cleveland Center
06:25AM 42.9989 -77.5144 115° Southeast 232 267 4,200 900 Climbing Cleveland Center
06:26AM 42.9739 -77.4361 114° Southeast 232 267 5,100 960 Climbing Cleveland Center
06:27AM 42.9467 -77.3581 115° Southeast 232 267 6,200 900 Climbing Cleveland Center
06:29AM 42.8961 -77.2047 114° Southeast 244 281 7,800 780 Climbing New York Center
06:30AM 42.8694 -77.1228 114° Southeast 244 281 8,600 780 Climbing New York Center
06:31AM 42.8383 -77.0406 117° Southeast 244 281 9,400 780 Climbing New York Center
06:32AM 42.8094 -76.9558 115° Southeast 244 281 10,200 840 Climbing New York Center
06:33AM 42.7719 -76.8789 124° Southeast 244 281 11,100 780 Climbing New York Center
06:34AM 42.7406 -76.7997 118° Southeast 244 281 11,800 660 Climbing New York Center
06:35AM 42.7028 -76.7200 123° Southeast 244 281 12,500 600 Climbing New York Center
06:36AM 42.6672 -76.6378 120° Southeast 244 281 13,000 240 Climbing New York Center
06:37AM 42.6278 -76.5525 122° Southeast 249 287 13,000  Level New York Center
06:38AM 42.5867 -76.4589 121° Southeast 269 310 13,000  Level New York Center
06:38AM 42.5625 -76.4097 124° Southeast 274 315 13,000  Level Boston Center
06:39AM 42.5294 -76.3342 121° Southeast 286 329 13,000  Level Boston Center
06:40AM 42.4811 -76.2269 121° Southeast 286 329 13,000 -60 Level Boston Center
06:41AM 42.4325 -76.1172 121° Southeast 286 329 12,900 -60 Descending Boston Center
06:42AM 42.3858 -76.0158 122° Southeast 297 342 12,900  Level Boston Center
06:43AM 42.3428 -75.9208 121° Southeast 297 342 12,900  Level Boston Center
06:44AM 42.2997 -75.8256 121° Southeast 302 348 12,900  Level Boston Center
06:45AM 42.2606 -75.7422 122° Southeast 302 348 12,900  Level Boston Center
06:46AM 42.2194 -75.6475 120° Southeast 302 348 12,900  Level Boston Center
06:47AM 42.1742 -75.5528 123° Southeast 302 348 12,900  Level Boston Center
06:48AM 42.1308 -75.4581 122° Southeast 302 348 12,900  Level Boston Center
06:49AM 42.0856 -75.3608 122° Southeast 302 348 12,900  Level Boston Center
06:50AM 42.0442 -75.2667 121° Southeast 302 348 13,000  Climbing Boston Center
06:51AM 42.0069 -75.1644 116° Southeast 302 348 13,000  Level Boston Center
06:52AM 41.9658 -75.0564 117° Southeast 297 342 13,000  Level Boston Center
06:53AM 41.9303 -74.9683 118° Southeast 292 336 13,000 -900 Level Boston Center
06:54AM 41.8547 -74.9042 148° Southeast 286 329 11,300 -1,620 Descending Boston Center
06:55AM 41.7931 -74.8600 152° Southeast 286 329 9,800 -1,620 Descending Boston Center
06:56AM 41.7192 -74.8069 152° Southeast 273 314 8,100 -1,440 Descending Boston Center
06:57AM 41.6533 -74.7600 152° Southeast 267 307 7,000 -600 Descending Boston Center
06:58AM 41.5875 -74.7161 153° Southeast 267 307 7,000 -540 Level Boston Center
06:59AM 41.5178 -74.6664 152° Southeast 277 319 6,000 -540 Descending Boston Center
07:00AM 41.4497 -74.6225 154° Southeast 282 325 6,000  Level Boston Center
07:02AM 41.3667 -74.6167 177° South 252 290 6,000  Level New York TRACON
07:03AM 41.3000 -74.6333 191° South 246 283 6,000 -480 Level New York TRACON
07:04AM 41.2333 -74.5833 151° Southeast 293 337 5,100 -480 Descending New York TRACON
07:05AM 41.1833 -74.5000 129° Southeast 285 328 5,000 -480 Descending New York TRACON
07:06AM 41.1333 -74.4333 135° Southeast 291 335 4,200 -540 Descending New York TRACON
07:07AM 41.0667 -74.3667 143° Southeast 281 323 4,000 -240 Descending New York TRACON
07:08AM 41.0167 -74.2833 128° Southeast 275 316 3,800 -540 Descending New York TRACON
07:09AM 40.9667 -74.2167 135° Southeast 284 327 3,000 -420 Descending New York TRACON
07:10AM 40.9167 -74.1500 135° Southeast 275 316 3,000  Level New York TRACON
07:11AM 40.8500 -74.1000 150° Southeast 257 296 3,000 -600 Level New York TRACON
07:12AM 40.7833 -74.1000 180° South 226 260 1,900 -1,140 Descending New York TRACON
07:13AM 40.7333 -74.1333 207° Southwest 163 188 800 -840 Descending New York TRACON
07:14AM 40.7167 -74.1500 217° Southwest 124 143 200 -600 Descending New York TRACON
07:16AM 40.6925 -74.1687 168° South  Level Estimated
07:23AM 40.6925 -74.1687 168° South  Level Estimated